sensor_id;sensor_type;location;lat;lon;timestamp;pressure;altitude;pressure_sealevel;temperature;humidity
7962;BME280;4026;43.652;24.906;2023-03-23T00:00:55;99263.19;;;8.55;100.00
7962;BME280;4026;43.652;24.906;2023-03-23T00:03:21;99258.97;;;8.68;100.00
7962;BME280;4026;43.652;24.906;2023-03-23T00:05:50;99259.75;;;8.83;100.00
7962;BME280;4026;43.652;24.906;2023-03-23T00:08:18;99263.13;;;8.83;100.00
7962;BME280;4026;43.652;24.906;2023-03-23T00:10:48;99265.09;;;8.93;100.00
7962;BME280;4026;43.652;24.906;2023-03-23T00:13:18;99261.34;;;8.71;100.00
7962;BME280;4026;43.652;24.906;2023-03-23T00:15:47;99259.72;;;8.70;100.00
7962;BME280;4026;43.652;24.906;2023-03-23T00:18:15;99257.16;;;8.70;100.00
7962;BME280;4026;43.652;24.906;2023-03-23T00:20:47;99254.22;;;8.76;100.00
7962;BME280;4026;43.652;24.906;2023-03-23T00:23:15;99256.81;;;8.89;100.00
7962;BME280;4026;43.652;24.906;2023-03-23T00:25:45;99258.56;;;8.89;100.00
7962;BME280;4026;43.652;24.906;2023-03-23T00:28:12;99260.38;;;8.87;100.00
7962;BME280;4026;43.652;24.906;2023-03-23T00:30:40;99255.47;;;8.83;100.00
7962;BME280;4026;43.652;24.906;2023-03-23T00:33:11;99253.47;;;8.89;100.00
7962;BME280;4026;43.652;24.906;2023-03-23T00:35:40;99248.56;;;8.86;100.00
7962;BME280;4026;43.652;24.906;2023-03-23T00:38:10;99248.78;;;8.95;100.00
7962;BME280;4026;43.652;24.906;2023-03-23T00:40:36;99250.47;;;9.09;100.00
7962;BME280;4026;43.652;24.906;2023-03-23T00:43:03;99255.16;;;9.02;100.00
7962;BME280;4026;43.652;24.906;2023-03-23T00:45:30;99248.31;;;9.03;100.00
7962;BME280;4026;43.652;24.906;2023-03-23T00:48:00;99245.75;;;9.03;100.00
7962;BME280;4026;43.652;24.906;2023-03-23T00:50:31;99253.28;;;9.04;100.00
7962;BME280;4026;43.652;24.906;2023-03-23T00:52:58;99248.59;;;8.98;100.00
7962;BME280;4026;43.652;24.906;2023-03-23T00:55:25;99240.84;;;9.00;100.00
7962;BME280;4026;43.652;24.906;2023-03-23T00:57:52;99245.03;;;9.01;100.00
7962;BME280;4026;43.652;24.906;2023-03-23T01:00:19;99247.97;;;8.95;100.00
7962;BME280;4026;43.652;24.906;2023-03-23T01:02:48;99242.47;;;9.01;100.00
7962;BME280;4026;43.652;24.906;2023-03-23T01:05:17;99234.44;;;9.07;100.00
7962;BME280;4026;43.652;24.906;2023-03-23T01:07:45;99237.91;;;9.06;100.00
7962;BME280;4026;43.652;24.906;2023-03-23T01:10:13;99241.47;;;9.03;100.00
7962;BME280;4026;43.652;24.906;2023-03-23T01:12:42;99234.13;;;8.99;100.00
7962;BME280;4026;43.652;24.906;2023-03-23T01:15:12;99234.28;;;8.96;100.00
7962;BME280;4026;43.652;24.906;2023-03-23T01:17:40;99236.16;;;8.94;100.00
7962;BME280;4026;43.652;24.906;2023-03-23T01:20:07;99235.13;;;8.96;100.00
7962;BME280;4026;43.652;24.906;2023-03-23T01:22:35;99232.47;;;8.98;100.00
7962;BME280;4026;43.652;24.906;2023-03-23T01:25:04;99238.19;;;9.01;100.00
7962;BME280;4026;43.652;24.906;2023-03-23T01:27:31;99229.59;;;8.90;100.00
7962;BME280;4026;43.652;24.906;2023-03-23T01:29:58;99228.03;;;8.87;100.00
7962;BME280;4026;43.652;24.906;2023-03-23T01:32:25;99234.28;;;8.96;100.00
7962;BME280;4026;43.652;24.906;2023-03-23T01:34:52;99231.75;;;8.96;100.00
7962;BME280;4026;43.652;24.906;2023-03-23T01:37:19;99235.75;;;9.00;100.00
7962;BME280;4026;43.652;24.906;2023-03-23T01:39:52;99234.28;;;8.96;100.00
7962;BME280;4026;43.652;24.906;2023-03-23T01:42:22;99233.94;;;9.02;100.00
7962;BME280;4026;43.652;24.906;2023-03-23T01:47:58;99225.13;;;8.93;100.00
7962;BME280;4026;43.652;24.906;2023-03-23T01:50:27;99224.09;;;8.96;100.00
7962;BME280;4026;43.652;24.906;2023-03-23T01:52:56;99233.81;;;9.03;100.00
7962;BME280;4026;43.652;24.906;2023-03-23T01:55:26;99231.38;;;9.02;100.00
7962;BME280;4026;43.652;24.906;2023-03-23T01:57:56;99229.66;;;9.02;100.00
7962;BME280;4026;43.652;24.906;2023-03-23T02:00:24;99235.59;;;9.16;100.00
7962;BME280;4026;43.652;24.906;2023-03-23T02:02:51;99224.75;;;9.12;100.00
7962;BME280;4026;43.652;24.906;2023-03-23T02:05:25;99239.84;;;9.02;100.00
7962;BME280;4026;43.652;24.906;2023-03-23T02:07:54;99242.28;;;9.04;100.00
7962;BME280;4026;43.652;24.906;2023-03-23T02:10:28;99236.44;;;9.16;100.00
7962;BME280;4026;43.652;24.906;2023-03-23T02:12:57;99239.03;;;9.02;100.00
7962;BME280;4026;43.652;24.906;2023-03-23T02:15:25;99233.94;;;9.02;100.00
7962;BME280;4026;43.652;24.906;2023-03-23T02:17:58;99242.19;;;9.05;100.00
7962;BME280;4026;43.652;24.906;2023-03-23T02:20:41;99249.69;;;9.21;100.00
7962;BME280;4026;43.652;24.906;2023-03-23T02:23:46;99249.19;;;9.16;100.00
7962;BME280;4026;43.652;24.906;2023-03-23T02:26:33;99252.97;;;9.23;100.00
7962;BME280;4026;43.652;24.906;2023-03-23T02:29:43;99250.06;;;9.15;100.00
7962;BME280;4026;43.652;24.906;2023-03-23T02:32:19;99248.13;;;9.06;100.00
7962;BME280;4026;43.652;24.906;2023-03-23T02:34:51;99254.34;;;9.02;100.00
7962;BME280;4026;43.652;24.906;2023-03-23T02:37:24;99249.59;;;8.96;100.00
7962;BME280;4026;43.652;24.906;2023-03-23T02:39:56;99248.75;;;8.82;100.00
7962;BME280;4026;43.652;24.906;2023-03-23T02:42:27;99252.56;;;8.75;100.00
7962;BME280;4026;43.652;24.906;2023-03-23T02:44:58;99249.97;;;8.90;100.00
7962;BME280;4026;43.652;24.906;2023-03-23T02:47:29;99249.59;;;8.96;100.00
7962;BME280;4026;43.652;24.906;2023-03-23T02:49:59;99256.34;;;8.97;100.00
7962;BME280;4026;43.652;24.906;2023-03-23T02:52:29;99256.97;;;9.00;100.00
7962;BME280;4026;43.652;24.906;2023-03-23T02:54:57;99255.19;;;8.88;100.00
7962;BME280;4026;43.652;24.906;2023-03-23T02:57:25;99263.06;;;8.98;100.00
7962;BME280;4026;43.652;24.906;2023-03-23T02:59:53;99266.75;;;8.94;100.00
7962;BME280;4026;43.652;24.906;2023-03-23T03:02:22;99270.72;;;8.98;100.00
7962;BME280;4026;43.652;24.906;2023-03-23T03:04:54;99265.78;;;8.82;100.00
7962;BME280;4026;43.652;24.906;2023-03-23T03:07:35;99266.94;;;8.91;100.00
7962;BME280;4026;43.652;24.906;2023-03-23T03:10:08;99264.47;;;8.89;100.00
7962;BME280;4026;43.652;24.906;2023-03-23T03:12:46;99265.66;;;8.83;100.00
7962;BME280;4026;43.652;24.906;2023-03-23T03:15:23;99264.19;;;8.94;100.00
7962;BME280;4026;43.652;24.906;2023-03-23T03:17:58;99271.78;;;9.08;100.00
7962;BME280;4026;43.652;24.906;2023-03-23T03:20:28;99272.28;;;9.00;100.00
7962;BME280;4026;43.652;24.906;2023-03-23T03:22:59;99274.75;;;9.02;100.00
7962;BME280;4026;43.652;24.906;2023-03-23T03:25:28;99286.91;;;9.11;100.00
7962;BME280;4026;43.652;24.906;2023-03-23T03:27:55;99290.31;;;9.24;100.00
7962;BME280;4026;43.652;24.906;2023-03-23T03:30:26;99302.66;;;9.30;100.00
7962;BME280;4026;43.652;24.906;2023-03-23T03:32:57;99298.88;;;9.23;100.00
7962;BME280;4026;43.652;24.906;2023-03-23T03:35:25;99310.13;;;9.34;100.00
7962;BME280;4026;43.652;24.906;2023-03-23T03:37:53;99307.09;;;9.41;100.00
7962;BME280;4026;43.652;24.906;2023-03-23T03:40:22;99301.38;;;9.38;100.00
7962;BME280;4026;43.652;24.906;2023-03-23T03:42:50;99303.59;;;9.29;100.00
7962;BME280;4026;43.652;24.906;2023-03-23T03:45:18;99305.91;;;9.20;100.00
7962;BME280;4026;43.652;24.906;2023-03-23T03:47:45;99305.84;;;9.07;100.00
7962;BME280;4026;43.652;24.906;2023-03-23T03:50:12;99299.13;;;9.06;100.00
7962;BME280;4026;43.652;24.906;2023-03-23T03:52:39;99301.72;;;9.19;100.00
7962;BME280;4026;43.652;24.906;2023-03-23T03:55:08;99303.19;;;9.36;100.00
7962;BME280;4026;43.652;24.906;2023-03-23T03:57:37;99304.84;;;9.37;100.00
7962;BME280;4026;43.652;24.906;2023-03-23T04:00:06;99301.19;;;9.41;100.00
7962;BME280;4026;43.652;24.906;2023-03-23T04:02:43;99302.38;;;9.35;100.00
7962;BME280;4026;43.652;24.906;2023-03-23T04:05:13;99304.22;;;9.33;100.00
7962;BME280;4026;43.652;24.906;2023-03-23T04:07:40;99300.66;;;9.36;100.00
7962;BME280;4026;43.652;24.906;2023-03-23T04:10:08;99303.72;;;9.41;100.00
7962;BME280;4026;43.652;24.906;2023-03-23T04:12:37;99304.47;;;9.43;100.00
7962;BME280;4026;43.652;24.906;2023-03-23T04:15:05;99307.00;;;9.43;100.00
7962;BME280;4026;43.652;24.906;2023-03-23T04:17:33;99314.22;;;9.36;100.00
7962;BME280;4026;43.652;24.906;2023-03-23T04:19:59;99307.97;;;9.27;100.00
7962;BME280;4026;43.652;24.906;2023-03-23T04:22:36;99321.69;;;9.12;100.00
7962;BME280;4026;43.652;24.906;2023-03-23T04:25:04;99308.78;;;9.01;100.00
7962;BME280;4026;43.652;24.906;2023-03-23T04:27:32;99305.16;;;9.05;100.00
7962;BME280;4026;43.652;24.906;2023-03-23T04:30:00;99310.56;;;9.13;100.00
7962;BME280;4026;43.652;24.906;2023-03-23T04:32:28;99307.84;;;9.16;100.00
7962;BME280;4026;43.652;24.906;2023-03-23T04:34:56;99315.84;;;9.10;100.00
7962;BME280;4026;43.652;24.906;2023-03-23T04:37:23;99311.63;;;8.96;100.00
7962;BME280;4026;43.652;24.906;2023-03-23T04:39:54;99319.75;;;8.89;100.00
7962;BME280;4026;43.652;24.906;2023-03-23T04:42:26;99316.16;;;9.05;100.00
7962;BME280;4026;43.652;24.906;2023-03-23T04:44:53;99316.78;;;9.09;100.00
7962;BME280;4026;43.652;24.906;2023-03-23T04:47:22;99322.66;;;8.97;100.00
7962;BME280;4026;43.652;24.906;2023-03-23T04:49:50;99324.63;;;9.06;100.00
7962;BME280;4026;43.652;24.906;2023-03-23T04:52:17;99328.56;;;8.97;100.00
7962;BME280;4026;43.652;24.906;2023-03-23T04:54:45;99326.78;;;9.12;100.00
7962;BME280;4026;43.652;24.906;2023-03-23T04:57:13;99326.78;;;9.12;100.00
7962;BME280;4026;43.652;24.906;2023-03-23T04:59:41;99338.25;;;9.19;100.00
7962;BME280;4026;43.652;24.906;2023-03-23T05:02:08;99328.25;;;9.16;100.00
7962;BME280;4026;43.652;24.906;2023-03-23T05:04:37;99337.97;;;9.24;100.00
7962;BME280;4026;43.652;24.906;2023-03-23T05:07:06;99336.97;;;9.26;100.00
7962;BME280;4026;43.652;24.906;2023-03-23T05:09:33;99339.09;;;9.20;100.00
7962;BME280;4026;43.652;24.906;2023-03-23T05:12:04;99340.75;;;9.34;100.00
7962;BME280;4026;43.652;24.906;2023-03-23T05:14:31;99338.38;;;9.30;100.00
7962;BME280;4026;43.652;24.906;2023-03-23T05:16:58;99338.47;;;9.16;100.00
7962;BME280;4026;43.652;24.906;2023-03-23T05:19:25;99338.63;;;9.13;100.00
7962;BME280;4026;43.652;24.906;2023-03-23T05:21:56;99345.84;;;9.34;100.00
7962;BME280;4026;43.652;24.906;2023-03-23T05:24:28;99343.69;;;9.27;100.00
7962;BME280;4026;43.652;24.906;2023-03-23T05:26:58;99344.81;;;9.23;100.00
7962;BME280;4026;43.652;24.906;2023-03-23T05:29:25;99344.03;;;9.36;100.00
7962;BME280;4026;43.652;24.906;2023-03-23T05:31:52;99349.88;;;9.38;100.00
7962;BME280;4026;43.652;24.906;2023-03-23T05:34:21;99351.81;;;9.47;100.00
7962;BME280;4026;43.652;24.906;2023-03-23T05:36:48;99354.56;;;9.44;100.00
7962;BME280;4026;43.652;24.906;2023-03-23T05:39:20;99352.03;;;9.44;100.00
7962;BME280;4026;43.652;24.906;2023-03-23T05:41:46;99350.19;;;9.46;100.00
7962;BME280;4026;43.652;24.906;2023-03-23T05:44:13;99349.47;;;9.44;100.00
7962;BME280;4026;43.652;24.906;2023-03-23T05:46:40;99346.72;;;9.47;100.00
7962;BME280;4026;43.652;24.906;2023-03-23T05:49:08;99347.13;;;9.53;100.00
7962;BME280;4026;43.652;24.906;2023-03-23T05:51:35;99355.34;;;9.71;100.00
7962;BME280;4026;43.652;24.906;2023-03-23T05:54:02;99354.13;;;9.77;100.00
7962;BME280;4026;43.652;24.906;2023-03-23T05:56:31;99359.31;;;9.63;100.00
7962;BME280;4026;43.652;24.906;2023-03-23T05:58:58;99372.31;;;9.72;100.00
7962;BME280;4026;43.652;24.906;2023-03-23T06:01:25;99371.94;;;9.79;100.00
7962;BME280;4026;43.652;24.906;2023-03-23T06:03:52;99371.00;;;9.80;100.00
7962;BME280;4026;43.652;24.906;2023-03-23T06:06:24;99368.78;;;9.88;100.00
7962;BME280;4026;43.652;24.906;2023-03-23T06:08:51;99365.28;;;9.89;100.00
7962;BME280;4026;43.652;24.906;2023-03-23T06:11:18;99366.44;;;9.97;100.00
7962;BME280;4026;43.652;24.906;2023-03-23T06:13:47;99362.16;;;9.98;100.00
7962;BME280;4026;43.652;24.906;2023-03-23T06:16:14;99367.47;;;10.20;100.00
7962;BME280;4026;43.652;24.906;2023-03-23T06:18:41;99368.22;;;10.10;100.00
7962;BME280;4026;43.652;24.906;2023-03-23T06:21:08;99370.66;;;10.11;100.00
7962;BME280;4026;43.652;24.906;2023-03-23T06:23:35;99364.84;;;10.35;100.00
7962;BME280;4026;43.652;24.906;2023-03-23T06:26:04;99373.44;;;10.59;100.00
7962;BME280;4026;43.652;24.906;2023-03-23T06:28:32;99374.84;;;10.89;100.00
7962;BME280;4026;43.652;24.906;2023-03-23T06:31:00;99383.78;;;11.07;100.00
7962;BME280;4026;43.652;24.906;2023-03-23T06:33:28;99385.22;;;11.12;100.00
7962;BME280;4026;43.652;24.906;2023-03-23T06:35:55;99390.34;;;10.99;100.00
7962;BME280;4026;43.652;24.906;2023-03-23T06:38:23;99398.50;;;11.17;100.00
7962;BME280;4026;43.652;24.906;2023-03-23T06:40:51;99406.97;;;11.30;100.00
7962;BME280;4026;43.652;24.906;2023-03-23T06:43:18;99412.50;;;11.24;100.00
7962;BME280;4026;43.652;24.906;2023-03-23T06:45:45;99414.06;;;11.14;100.00
7962;BME280;4026;43.652;24.906;2023-03-23T06:48:14;99420.53;;;11.06;100.00
7962;BME280;4026;43.652;24.906;2023-03-23T06:50:42;99426.19;;;10.86;100.00
7962;BME280;4026;43.652;24.906;2023-03-23T06:53:10;99420.97;;;11.00;100.00
7962;BME280;4026;43.652;24.906;2023-03-23T06:55:37;99416.75;;;11.12;100.00
7962;BME280;4026;43.652;24.906;2023-03-23T06:58:04;99431.03;;;11.27;100.00
7962;BME280;4026;43.652;24.906;2023-03-23T07:00:32;99430.97;;;11.40;100.00
7962;BME280;4026;43.652;24.906;2023-03-23T07:02:59;99435.91;;;11.43;100.00
7962;BME280;4026;43.652;24.906;2023-03-23T07:05:28;99436.16;;;11.27;100.00
7962;BME280;4026;43.652;24.906;2023-03-23T07:07:55;99439.66;;;11.14;100.00
7962;BME280;4026;43.652;24.906;2023-03-23T07:10:22;99448.00;;;11.28;100.00
7962;BME280;4026;43.652;24.906;2023-03-23T07:12:50;99436.09;;;11.40;100.00
7962;BME280;4026;43.652;24.906;2023-03-23T07:15:17;99442.88;;;11.41;100.00
7962;BME280;4026;43.652;24.906;2023-03-23T07:17:44;99441.13;;;11.66;100.00
7962;BME280;4026;43.652;24.906;2023-03-23T07:20:12;99444.63;;;11.65;100.00
7962;BME280;4026;43.652;24.906;2023-03-23T07:22:41;99439.66;;;11.87;100.00
7962;BME280;4026;43.652;24.906;2023-03-23T07:25:08;99446.63;;;12.20;100.00
7962;BME280;4026;43.652;24.906;2023-03-23T07:27:35;99446.78;;;12.41;100.00
7962;BME280;4026;43.652;24.906;2023-03-23T07:30:03;99450.53;;;12.49;100.00
7962;BME280;4026;43.652;24.906;2023-03-23T07:32:30;99448.56;;;12.63;100.00
7962;BME280;4026;43.652;24.906;2023-03-23T07:34:57;99455.44;;;12.52;100.00
7962;BME280;4026;43.652;24.906;2023-03-23T07:37:24;99459.19;;;12.70;100.00
7962;BME280;4026;43.652;24.906;2023-03-23T07:39:53;99456.88;;;12.78;100.00
7962;BME280;4026;43.652;24.906;2023-03-23T07:42:20;99456.28;;;12.75;100.00
7962;BME280;4026;43.652;24.906;2023-03-23T07:44:47;99455.34;;;13.09;100.00
7962;BME280;4026;43.652;24.906;2023-03-23T07:47:14;99450.03;;;13.99;100.00
7962;BME280;4026;43.652;24.906;2023-03-23T07:49:40;99454.41;;;14.50;100.00
7962;BME280;4026;43.652;24.906;2023-03-23T07:52:07;99455.38;;;14.29;100.00
7962;BME280;4026;43.652;24.906;2023-03-23T07:54:36;99451.25;;;14.37;100.00
7962;BME280;4026;43.652;24.906;2023-03-23T07:57:05;99447.81;;;14.37;100.00
7962;BME280;4026;43.652;24.906;2023-03-23T07:59:32;99455.72;;;14.45;100.00
7962;BME280;4026;43.652;24.906;2023-03-23T08:01:59;99457.56;;;14.54;100.00
7962;BME280;4026;43.652;24.906;2023-03-23T08:04:26;99457.13;;;14.49;100.00
7962;BME280;4026;43.652;24.906;2023-03-23T08:06:53;99453.47;;;13.89;100.00
7962;BME280;4026;43.652;24.906;2023-03-23T08:09:20;99458.38;;;14.34;100.00
7962;BME280;4026;43.652;24.906;2023-03-23T08:11:47;99454.56;;;14.49;100.00
7962;BME280;4026;43.652;24.906;2023-03-23T08:14:15;99460.25;;;14.74;100.00
7962;BME280;4026;43.652;24.906;2023-03-23T08:16:42;99459.50;;;14.41;100.00
7962;BME280;4026;43.652;24.906;2023-03-23T08:19:09;99455.63;;;14.25;100.00
7962;BME280;4026;43.652;24.906;2023-03-23T08:21:36;99456.94;;;14.20;100.00
7962;BME280;4026;43.652;24.906;2023-03-23T08:24:03;99454.59;;;14.80;100.00
7962;BME280;4026;43.652;24.906;2023-03-23T08:26:31;99457.69;;;15.54;100.00
7962;BME280;4026;43.652;24.906;2023-03-23T08:28:57;99457.84;;;16.21;95.10
7962;BME280;4026;43.652;24.906;2023-03-23T08:31:26;99448.78;;;15.78;99.64
7962;BME280;4026;43.652;24.906;2023-03-23T08:33:53;99452.69;;;16.21;100.00
7962;BME280;4026;43.652;24.906;2023-03-23T08:36:22;99457.09;;;17.05;90.59
7962;BME280;4026;43.652;24.906;2023-03-23T08:38:49;99454.53;;;17.05;87.12
7962;BME280;4026;43.652;24.906;2023-03-23T08:41:17;99454.50;;;17.32;94.62
7962;BME280;4026;43.652;24.906;2023-03-23T08:43:44;99446.78;;;17.68;88.87
7962;BME280;4026;43.652;24.906;2023-03-23T08:46:11;99447.56;;;17.51;87.12
7962;BME280;4026;43.652;24.906;2023-03-23T08:48:40;99453.59;;;17.24;90.70
7962;BME280;4026;43.652;24.906;2023-03-23T08:51:07;99448.03;;;17.18;90.44
7962;BME280;4026;43.652;24.906;2023-03-23T08:53:34;99448.47;;;16.86;92.69
7962;BME280;4026;43.652;24.906;2023-03-23T08:56:06;99448.34;;;16.02;90.52
7962;BME280;4026;43.652;24.906;2023-03-23T08:58:33;99454.56;;;15.60;92.98
7962;BME280;4026;43.652;24.906;2023-03-23T09:01:01;99452.16;;;15.88;98.13
7962;BME280;4026;43.652;24.906;2023-03-23T09:03:28;99445.66;;;15.84;100.00
7962;BME280;4026;43.652;24.906;2023-03-23T09:05:59;99445.09;;;15.90;100.00
7962;BME280;4026;43.652;24.906;2023-03-23T09:08:27;99445.50;;;16.15;100.00
7962;BME280;4026;43.652;24.906;2023-03-23T09:10:55;99448.91;;;15.86;98.29
7962;BME280;4026;43.652;24.906;2023-03-23T09:13:22;99447.53;;;16.01;89.20
7962;BME280;4026;43.652;24.906;2023-03-23T09:15:49;99443.63;;;15.97;91.90
7962;BME280;4026;43.652;24.906;2023-03-23T09:18:16;99442.00;;;16.63;91.70
7962;BME280;4026;43.652;24.906;2023-03-23T09:20:43;99444.78;;;16.42;83.75
7962;BME280;4026;43.652;24.906;2023-03-23T09:23:12;99445.50;;;16.81;87.80
7962;BME280;4026;43.652;24.906;2023-03-23T09:25:40;99444.00;;;17.79;86.01
7962;BME280;4026;43.652;24.906;2023-03-23T09:28:07;99447.66;;;18.57;80.30
7962;BME280;4026;43.652;24.906;2023-03-23T09:30:36;99446.63;;;18.75;78.10
7962;BME280;4026;43.652;24.906;2023-03-23T09:33:04;99443.69;;;18.70;81.21
7962;BME280;4026;43.652;24.906;2023-03-23T09:35:32;99442.78;;;17.74;86.03
7962;BME280;4026;43.652;24.906;2023-03-23T09:38:00;99437.22;;;17.51;89.90
7962;BME280;4026;43.652;24.906;2023-03-23T09:40:30;99439.53;;;16.71;99.20
7962;BME280;4026;43.652;24.906;2023-03-23T09:43:17;99442.13;;;16.71;96.76
7962;BME280;4026;43.652;24.906;2023-03-23T09:45:53;99431.44;;;16.56;99.52
7962;BME280;4026;43.652;24.906;2023-03-23T09:48:32;99430.31;;;16.12;99.77
7962;BME280;4026;43.652;24.906;2023-03-23T09:51:07;99434.78;;;15.90;100.00
7962;BME280;4026;43.652;24.906;2023-03-23T09:53:38;99433.97;;;15.70;100.00
7962;BME280;4026;43.652;24.906;2023-03-23T09:56:11;99436.41;;;15.81;100.00
7962;BME280;4026;43.652;24.906;2023-03-23T09:58:45;99440.44;;;15.65;100.00
7962;BME280;4026;43.652;24.906;2023-03-23T10:01:16;99437.50;;;15.79;98.83
7962;BME280;4026;43.652;24.906;2023-03-23T10:03:45;99432.06;;;15.62;100.00
7962;BME280;4026;43.652;24.906;2023-03-23T10:06:14;99430.00;;;15.56;96.69
7962;BME280;4026;43.652;24.906;2023-03-23T10:08:46;99435.28;;;15.65;99.37
7962;BME280;4026;43.652;24.906;2023-03-23T10:11:21;99434.25;;;15.77;97.72
7962;BME280;4026;43.652;24.906;2023-03-23T10:14:02;99438.06;;;15.92;97.45
7962;BME280;4026;43.652;24.906;2023-03-23T10:16:34;99439.09;;;16.28;100.00
7962;BME280;4026;43.652;24.906;2023-03-23T10:19:12;99436.72;;;16.55;96.48
7962;BME280;4026;43.652;24.906;2023-03-23T10:21:50;99429.03;;;17.37;97.42
7962;BME280;4026;43.652;24.906;2023-03-23T10:24:21;99423.66;;;17.49;91.60
7962;BME280;4026;43.652;24.906;2023-03-23T10:27:00;99435.66;;;17.22;89.41
7962;BME280;4026;43.652;24.906;2023-03-23T10:29:34;99435.78;;;16.56;95.95
7962;BME280;4026;43.652;24.906;2023-03-23T10:32:09;99440.31;;;15.66;100.00
7962;BME280;4026;43.652;24.906;2023-03-23T10:34:42;99431.38;;;15.01;100.00
7962;BME280;4026;43.652;24.906;2023-03-23T10:37:13;99437.00;;;14.85;100.00
7962;BME280;4026;43.652;24.906;2023-03-23T10:39:47;99432.69;;;14.95;100.00
7962;BME280;4026;43.652;24.906;2023-03-23T10:42:24;99422.63;;;14.82;100.00
7962;BME280;4026;43.652;24.906;2023-03-23T10:44:52;99429.97;;;14.87;100.00
7962;BME280;4026;43.652;24.906;2023-03-23T10:47:19;99425.03;;;14.74;100.00
7962;BME280;4026;43.652;24.906;2023-03-23T10:49:49;99418.78;;;14.67;100.00
7962;BME280;4026;43.652;24.906;2023-03-23T10:52:27;99414.31;;;14.48;100.00
7962;BME280;4026;43.652;24.906;2023-03-23T10:54:57;99416.06;;;14.68;100.00
7962;BME280;4026;43.652;24.906;2023-03-23T10:57:27;99416.84;;;14.59;100.00
7962;BME280;4026;43.652;24.906;2023-03-23T11:00:00;99410.34;;;14.55;100.00
7962;BME280;4026;43.652;24.906;2023-03-23T11:02:31;99418.34;;;14.41;100.00
7962;BME280;4026;43.652;24.906;2023-03-23T11:05:01;99416.63;;;14.20;100.00
7962;BME280;4026;43.652;24.906;2023-03-23T11:07:31;99420.88;;;14.10;100.00
7962;BME280;4026;43.652;24.906;2023-03-23T11:10:07;99421.94;;;14.29;100.00
7962;BME280;4026;43.652;24.906;2023-03-23T11:12:45;99415.22;;;14.16;100.00
7962;BME280;4026;43.652;24.906;2023-03-23T11:15:28;99410.06;;;14.16;100.00
7962;BME280;4026;43.652;24.906;2023-03-23T11:18:01;99401.00;;;13.91;100.00
7962;BME280;4026;43.652;24.906;2023-03-23T11:20:34;99405.94;;;14.04;100.00
7962;BME280;4026;43.652;24.906;2023-03-23T11:23:13;99401.94;;;14.11;100.00
7962;BME280;4026;43.652;24.906;2023-03-23T11:25:53;99400.66;;;14.26;100.00
7962;BME280;4026;43.652;24.906;2023-03-23T11:28:26;99400.38;;;14.50;100.00
7962;BME280;4026;43.652;24.906;2023-03-23T11:30:55;99402.28;;;14.69;100.00
7962;BME280;4026;43.652;24.906;2023-03-23T11:33:22;99401.22;;;14.82;100.00
7962;BME280;4026;43.652;24.906;2023-03-23T11:35:53;99400.28;;;14.83;100.00
7962;BME280;4026;43.652;24.906;2023-03-23T11:38:22;99399.63;;;14.90;100.00
7962;BME280;4026;43.652;24.906;2023-03-23T11:40:51;99397.94;;;14.70;100.00
7962;BME280;4026;43.652;24.906;2023-03-23T11:43:22;99390.66;;;14.75;100.00
7962;BME280;4026;43.652;24.906;2023-03-23T11:45:59;99390.16;;;14.91;100.00
7962;BME280;4026;43.652;24.906;2023-03-23T11:48:34;99394.50;;;14.90;100.00
7962;BME280;4026;43.652;24.906;2023-03-23T11:51:05;99395.19;;;14.92;100.00
7962;BME280;4026;43.652;24.906;2023-03-23T11:53:43;99387.72;;;14.89;100.00
7962;BME280;4026;43.652;24.906;2023-03-23T11:56:18;99390.38;;;14.78;100.00
7962;BME280;4026;43.652;24.906;2023-03-23T11:58:47;99386.56;;;14.73;100.00
7962;BME280;4026;43.652;24.906;2023-03-23T12:01:36;99385.25;;;14.88;100.00
7962;BME280;4026;43.652;24.906;2023-03-23T12:07:21;99383.94;;;15.03;100.00
7962;BME280;4026;43.652;24.906;2023-03-23T12:10:00;99388.97;;;15.14;100.00
7962;BME280;4026;43.652;24.906;2023-03-23T12:12:36;99378.72;;;15.24;100.00
7962;BME280;4026;43.652;24.906;2023-03-23T12:15:17;99380.03;;;15.09;100.00
7962;BME280;4026;43.652;24.906;2023-03-23T12:17:54;99375.84;;;15.17;100.00
7962;BME280;4026;43.652;24.906;2023-03-23T12:20:31;99372.09;;;15.60;100.00
7962;BME280;4026;43.652;24.906;2023-03-23T12:23:10;99360.50;;;16.13;99.83
7962;BME280;4026;43.652;24.906;2023-03-23T12:28:36;99367.75;;;16.00;99.24
7962;BME280;4026;43.652;24.906;2023-03-23T12:31:12;99361.16;;;16.25;92.44
7962;BME280;4026;43.652;24.906;2023-03-23T12:33:50;99359.19;;;16.46;94.26
7962;BME280;4026;43.652;24.906;2023-03-23T12:36:30;99358.09;;;16.49;92.98
7962;BME280;4026;43.652;24.906;2023-03-23T12:39:12;99355.84;;;16.64;91.21
7962;BME280;4026;43.652;24.906;2023-03-23T12:41:45;99355.66;;;16.47;91.01
7962;BME280;4026;43.652;24.906;2023-03-23T12:44:17;99356.28;;;16.22;90.27
7962;BME280;4026;43.652;24.906;2023-03-23T12:49:39;99352.97;;;16.39;91.96
7962;BME280;4026;43.652;24.906;2023-03-23T12:52:13;99344.78;;;15.97;92.11
7962;BME280;4026;43.652;24.906;2023-03-23T12:54:47;99342.81;;;15.71;96.34
7962;BME280;4026;43.652;24.906;2023-03-23T12:57:22;99340.09;;;15.53;100.00
7962;BME280;4026;43.652;24.906;2023-03-23T12:59:54;99338.53;;;15.99;97.89
7962;BME280;4026;43.652;24.906;2023-03-23T13:02:26;99332.38;;;16.29;91.61
7962;BME280;4026;43.652;24.906;2023-03-23T13:04:59;99332.59;;;16.36;90.77
7962;BME280;4026;43.652;24.906;2023-03-23T13:07:34;99332.25;;;16.59;95.95
7962;BME280;4026;43.652;24.906;2023-03-23T13:10:04;99331.06;;;16.81;92.75
7962;BME280;4026;43.652;24.906;2023-03-23T13:12:33;99327.09;;;17.04;87.55
7962;BME280;4026;43.652;24.906;2023-03-23T13:15:15;99329.84;;;17.03;85.28
7962;BME280;4026;43.652;24.906;2023-03-23T13:17:51;99321.03;;;16.78;86.22
7962;BME280;4026;43.652;24.906;2023-03-23T13:20:41;99328.41;;;16.63;86.16
7962;BME280;4026;43.652;24.906;2023-03-23T13:23:14;99323.75;;;16.66;87.49
7962;BME280;4026;43.652;24.906;2023-03-23T13:25:50;99320.41;;;16.93;90.46
7962;BME280;4026;43.652;24.906;2023-03-23T13:28:19;99318.34;;;17.15;86.73
7962;BME280;4026;43.652;24.906;2023-03-23T13:31:01;99317.94;;;16.92;81.50
7962;BME280;4026;43.652;24.906;2023-03-23T13:33:32;99315.84;;;16.78;83.00
7962;BME280;4026;43.652;24.906;2023-03-23T13:36:08;99317.28;;;16.62;84.68